createdAt,value
2024-02-29T00:00:27.466Z,63.69
2024-02-29T00:03:34.389Z,63.93
2024-02-29T00:06:40.845Z,63.47
2024-02-29T00:09:50.281Z,63.58
2024-02-29T00:12:56.572Z,63.65
2024-02-29T00:16:03.918Z,63.74
2024-02-29T00:19:09.961Z,64.00
2024-02-29T00:22:16.583Z,64.14
2024-02-29T00:25:25.742Z,64.29
2024-02-29T00:28:32.259Z,64.04
2024-02-29T00:31:38.279Z,63.90
2024-02-29T00:34:45.144Z,64.09
2024-02-29T00:37:51.102Z,64.05
2024-02-29T00:41:00.422Z,64.20
2024-02-29T00:44:06.687Z,64.25
2024-02-29T00:47:15.263Z,64.14
2024-02-29T00:50:21.403Z,64.24
2024-02-29T00:53:28.189Z,64.50
2024-02-29T00:56:36.929Z,64.54
2024-02-29T00:59:44.173Z,64.68
2024-02-29T01:02:50.157Z,64.85
2024-02-29T01:05:57.115Z,64.98
2024-02-29T01:09:03.129Z,65.11
2024-02-29T01:12:12.797Z,64.97
2024-02-29T01:15:20.918Z,64.99
2024-02-29T01:18:27.744Z,65.14
2024-02-29T01:21:33.845Z,65.48
2024-02-29T01:24:40.916Z,66.05
2024-02-29T01:27:49.602Z,65.78
2024-02-29T01:30:56.397Z,65.89
2024-02-29T01:34:02.575Z,65.48
2024-02-29T01:37:09.430Z,65.57
2024-02-29T01:40:19.592Z,65.77
2024-02-29T01:43:30.746Z,65.70
2024-02-29T01:46:36.771Z,65.99
2024-02-29T01:49:44.291Z,65.69
2024-02-29T01:52:50.984Z,65.65
2024-02-29T01:55:58.032Z,65.56
2024-02-29T01:59:08.989Z,65.63
2024-02-29T02:02:16.037Z,65.72
2024-02-29T02:05:22.126Z,65.65
2024-02-29T02:08:31.666Z,65.92
2024-02-29T02:11:37.712Z,65.61
2024-02-29T02:14:47.779Z,65.61
2024-02-29T02:17:53.907Z,65.80
2024-02-29T02:21:03.471Z,66.20
2024-02-29T02:24:09.954Z,66.07
2024-02-29T02:27:16.720Z,66.14
2024-02-29T02:30:22.769Z,65.95
2024-02-29T02:33:29.678Z,66.23
2024-02-29T02:36:38.367Z,65.77
2024-02-29T02:39:45.427Z,66.23
2024-02-29T02:42:51.492Z,66.19
2024-02-29T02:45:58.981Z,66.07
2024-02-29T02:49:05.624Z,66.06
2024-02-29T02:52:15.138Z,66.06
2024-02-29T02:55:21.581Z,65.89
2024-02-29T02:58:28.421Z,65.64
2024-02-29T03:01:35.023Z,65.87
2024-02-29T03:04:41.786Z,65.83
2024-02-29T03:07:50.896Z,65.39
2024-02-29T03:10:58.037Z,65.39
2024-02-29T03:14:04.110Z,65.42
2024-02-29T03:17:10.938Z,65.63
2024-02-29T03:20:17.020Z,65.56
2024-02-29T03:23:26.533Z,65.38
2024-02-29T03:26:32.602Z,65.55
2024-02-29T03:29:39.457Z,65.39
2024-02-29T03:32:45.547Z,65.30
2024-02-29T03:35:52.637Z,65.53
2024-02-29T03:39:01.475Z,65.47
2024-02-29T03:42:08.363Z,65.39
2024-02-29T03:45:14.454Z,65.61
2024-02-29T03:48:21.451Z,65.60
2024-02-29T03:51:27.568Z,65.91
2024-02-29T03:54:37.015Z,65.88
2024-02-29T03:57:43.048Z,65.78
2024-02-29T04:00:50.332Z,65.77
2024-02-29T04:03:56.495Z,65.79
2024-02-29T04:07:03.284Z,65.81
2024-02-29T04:10:13.352Z,65.70
2024-02-29T04:13:21.926Z,65.45
2024-02-29T04:16:28.024Z,65.63
2024-02-29T04:19:34.846Z,65.30
2024-02-29T04:22:40.978Z,65.50
2024-02-29T04:25:50.644Z,65.57
2024-02-29T04:28:56.861Z,65.51
2024-02-29T04:32:08.462Z,65.17
2024-02-29T04:35:14.795Z,65.35
2024-02-29T04:38:21.803Z,65.27
2024-02-29T04:41:30.462Z,65.25
2024-02-29T04:44:37.268Z,65.37
2024-02-29T04:47:44.246Z,65.26
2024-02-29T04:50:51.231Z,65.41
2024-02-29T04:53:57.285Z,65.14
2024-02-29T04:57:06.656Z,64.98
2024-02-29T05:00:14.642Z,65.15
2024-02-29T05:03:22.501Z,65.22
2024-02-29T05:06:29.366Z,64.87
2024-02-29T05:09:36.533Z,64.90
2024-02-29T05:12:50.156Z,64.59
2024-02-29T05:15:56.990Z,64.48
2024-02-29T05:19:03.243Z,64.41
2024-02-29T05:22:10.167Z,64.51
2024-02-29T05:25:16.344Z,64.41
2024-02-29T05:28:25.730Z,64.41
2024-02-29T05:31:32.432Z,64.24
2024-02-29T05:34:39.204Z,64.41
2024-02-29T05:37:45.710Z,64.37
2024-02-29T05:40:52.582Z,64.60
2024-02-29T05:44:01.590Z,64.49
2024-02-29T05:47:09.359Z,64.66
2024-02-29T05:50:15.836Z,64.77
2024-02-29T05:53:22.623Z,64.62
2024-02-29T05:56:28.819Z,64.86
2024-02-29T05:59:38.221Z,64.97
2024-02-29T06:02:44.847Z,64.91
2024-02-29T06:05:51.594Z,64.75
2024-02-29T06:08:57.580Z,64.77
2024-02-29T06:12:04.658Z,64.51
2024-02-29T06:15:14.245Z,64.44
2024-02-29T06:18:21.020Z,64.48
2024-02-29T06:21:27.551Z,64.54
2024-02-29T06:24:34.401Z,64.19
2024-02-29T06:27:41.108Z,64.40
2024-02-29T06:30:51.049Z,64.33
2024-02-29T06:33:57.331Z,64.63
2024-02-29T06:37:04.202Z,64.86
2024-02-29T06:40:14.772Z,64.93
2024-02-29T06:43:21.628Z,64.98
2024-02-29T06:46:30.366Z,64.89
2024-02-29T06:49:37.110Z,65.08
2024-02-29T06:52:43.695Z,65.22
2024-02-29T06:55:50.493Z,65.20
2024-02-29T06:58:56.465Z,65.53
2024-02-29T07:02:06.344Z,65.82
2024-02-29T07:05:12.860Z,65.78
2024-02-29T07:08:19.692Z,66.12
2024-02-29T07:11:27.507Z,66.17
2024-02-29T07:14:34.819Z,66.09
2024-02-29T07:17:43.551Z,66.36
2024-02-29T07:20:50.583Z,66.46
2024-02-29T07:23:56.598Z,66.29
2024-02-29T07:27:04.052Z,66.61
2024-02-29T07:30:12.736Z,66.68
2024-02-29T07:33:22.670Z,66.78
2024-02-29T07:36:30.080Z,66.58
2024-02-29T07:39:36.917Z,67.04
2024-02-29T07:42:43.327Z,67.38
2024-02-29T07:45:50.307Z,67.58
2024-02-29T07:48:58.977Z,67.64
2024-02-29T07:52:06.117Z,67.88
2024-02-29T07:55:15.994Z,67.97
2024-02-29T07:58:22.873Z,67.83
2024-02-29T08:01:28.947Z,68.11
2024-02-29T08:04:38.471Z,67.51
2024-02-29T08:07:48.084Z,67.56
2024-02-29T08:10:54.885Z,67.43
2024-02-29T08:14:00.944Z,67.72
2024-02-29T08:17:08.261Z,68.04
2024-02-29T08:20:21.652Z,67.74
2024-02-29T08:23:28.747Z,67.68
2024-02-29T08:26:34.926Z,67.35
2024-02-29T08:29:41.776Z,67.50
2024-02-29T08:32:50.071Z,67.37
2024-02-29T08:35:59.511Z,67.11
2024-02-29T08:39:06.020Z,66.44
2024-02-29T08:42:12.821Z,66.67
2024-02-29T08:45:20.530Z,66.46
2024-02-29T08:48:28.609Z,66.26
2024-02-29T08:51:37.443Z,66.00
2024-02-29T08:54:43.840Z,66.08
2024-02-29T08:57:49.410Z,65.30
2024-02-29T09:00:55.999Z,64.22
2024-02-29T09:04:03.269Z,64.73
2024-02-29T09:07:12.154Z,64.51
2024-02-29T09:10:18.249Z,63.53
2024-02-29T09:13:30.550Z,62.32
2024-02-29T09:16:40.755Z,62.04
2024-02-29T09:19:47.685Z,61.33
2024-02-29T09:22:56.111Z,60.85
2024-02-29T09:26:04.186Z,59.29
2024-02-29T09:29:09.674Z,58.91
2024-02-29T09:32:15.910Z,58.30
2024-02-29T09:35:21.399Z,56.74
2024-02-29T09:38:30.476Z,54.42
2024-02-29T09:41:58.819Z,52.34
2024-02-29T09:45:02.401Z,50.56
2024-02-29T09:48:11.124Z,48.85
2024-02-29T09:51:24.389Z,48.05
2024-02-29T09:54:38.139Z,46.27
2024-02-29T09:57:45.074Z,45.72
2024-02-29T10:00:51.851Z,43.93
2024-02-29T10:03:59.972Z,43.97
2024-02-29T10:07:05.564Z,43.03
2024-02-29T10:10:18.075Z,42.15
2024-02-29T10:13:23.721Z,40.75
2024-02-29T10:16:30.126Z,39.48
2024-02-29T10:19:38.937Z,38.54
2024-02-29T10:22:49.126Z,36.99
2024-02-29T10:25:59.133Z,35.36
2024-02-29T10:29:07.373Z,34.34
2024-02-29T10:32:13.543Z,33.63
2024-02-29T10:35:24.635Z,33.99
2024-02-29T10:38:30.151Z,32.84
2024-02-29T10:41:42.600Z,32.14
2024-02-29T10:44:51.882Z,31.57
2024-02-29T10:48:12.206Z,30.88
2024-02-29T10:51:31.020Z,29.28
2024-02-29T10:54:56.913Z,30.09
2024-02-29T10:58:16.492Z,29.65
2024-02-29T11:01:23.169Z,29.52
2024-02-29T11:04:29.303Z,28.36
2024-02-29T11:07:36.788Z,28.14
2024-02-29T11:10:42.465Z,27.70
2024-02-29T11:13:51.298Z,25.99
2024-02-29T11:16:59.724Z,26.01
2024-02-29T11:20:10.619Z,26.21
2024-02-29T11:23:17.391Z,26.31
2024-02-29T11:26:33.211Z,25.86
2024-02-29T11:29:41.460Z,25.01
2024-02-29T11:32:47.703Z,24.50
2024-02-29T11:35:55.956Z,23.08
2024-02-29T11:39:03.158Z,23.47
2024-02-29T11:42:09.652Z,23.29
2024-02-29T11:45:25.607Z,22.88
2024-02-29T11:48:31.286Z,22.89
2024-02-29T11:51:37.763Z,22.99
2024-02-29T11:54:43.732Z,22.82
2024-02-29T11:57:50.558Z,23.30
2024-02-29T12:00:58.698Z,23.35
2024-02-29T12:04:06.220Z,21.89
2024-02-29T12:07:12.197Z,22.48
2024-02-29T12:10:19.682Z,21.94
2024-02-29T12:13:25.879Z,22.53
2024-02-29T12:16:34.886Z,21.75
2024-02-29T12:19:43.241Z,22.36
2024-02-29T12:22:50.771Z,21.76
2024-02-29T12:25:56.525Z,21.78
2024-02-29T12:29:03.642Z,21.60
2024-02-29T12:32:13.755Z,21.45
2024-02-29T12:35:21.537Z,21.12
2024-02-29T12:38:28.743Z,20.92
2024-02-29T12:41:35.429Z,22.03
2024-02-29T12:44:41.526Z,21.41
2024-02-29T12:47:50.392Z,21.42
2024-02-29T12:50:56.066Z,21.81
2024-02-29T12:54:02.307Z,21.85
2024-02-29T12:57:11.440Z,22.00
2024-02-29T13:00:25.412Z,21.68
2024-02-29T13:03:33.711Z,22.34
2024-02-29T13:06:40.456Z,22.58
2024-02-29T13:09:47.092Z,22.50
2024-02-29T13:13:00.195Z,22.44
2024-02-29T13:16:11.791Z,22.63
2024-02-29T13:19:20.754Z,23.24
2024-02-29T13:22:26.484Z,23.55
2024-02-29T13:25:33.021Z,23.68
2024-02-29T13:28:39.880Z,24.32
2024-02-29T13:31:46.260Z,24.77
2024-02-29T13:34:55.059Z,25.06
2024-02-29T13:38:04.248Z,25.46
2024-02-29T13:41:11.039Z,25.72
2024-02-29T13:44:17.357Z,26.44
2024-02-29T13:47:22.890Z,26.63
2024-02-29T13:50:31.810Z,26.46
2024-02-29T13:53:37.844Z,26.67
2024-02-29T13:56:44.274Z,26.83
2024-02-29T13:59:50.800Z,26.93
2024-02-29T14:02:57.039Z,26.51
2024-02-29T14:06:05.794Z,26.82
2024-02-29T14:09:12.804Z,26.11
2024-02-29T14:12:18.471Z,26.40
2024-02-29T14:15:24.799Z,25.79
2024-02-29T14:18:31.501Z,26.57
2024-02-29T14:21:40.415Z,26.87
2024-02-29T14:24:49.192Z,26.94
2024-02-29T14:27:56.882Z,27.43
2024-02-29T14:31:02.464Z,28.13
2024-02-29T14:34:10.333Z,28.50
2024-02-29T14:37:19.192Z,29.02
2024-02-29T14:40:26.070Z,29.51
2024-02-29T14:43:31.690Z,29.64
2024-02-29T14:46:38.802Z,30.37
2024-02-29T14:49:44.525Z,30.36
2024-02-29T14:52:53.420Z,31.20
2024-02-29T14:55:59.216Z,31.51
2024-02-29T14:59:05.647Z,31.78
2024-02-29T15:02:12.804Z,32.09
2024-02-29T15:05:19.263Z,32.39
2024-02-29T15:08:27.680Z,32.59
2024-02-29T15:11:34.154Z,32.95
2024-02-29T15:14:40.374Z,33.50
2024-02-29T15:17:47.126Z,33.66
2024-02-29T15:20:53.331Z,34.29
2024-02-29T15:24:06.056Z,34.89
2024-02-29T15:27:11.982Z,35.36
2024-02-29T15:30:18.682Z,35.61
2024-02-29T15:33:24.318Z,36.15
2024-02-29T15:36:30.587Z,36.72
2024-02-29T15:39:38.840Z,37.14
2024-02-29T15:42:45.107Z,37.81
2024-02-29T15:45:50.794Z,38.26
2024-02-29T15:48:57.637Z,38.44
2024-02-29T15:52:04.323Z,38.80
2024-02-29T15:55:13.465Z,39.05
2024-02-29T15:58:19.356Z,39.33
2024-02-29T16:01:26.065Z,39.87
2024-02-29T16:04:32.142Z,40.46
2024-02-29T16:07:38.537Z,40.72
2024-02-29T16:10:48.336Z,41.32
2024-02-29T16:13:56.706Z,41.84
2024-02-29T16:17:03.385Z,42.02
2024-02-29T16:20:11.640Z,42.29
2024-02-29T16:23:18.775Z,42.51
2024-02-29T16:26:27.934Z,43.15
2024-02-29T16:29:33.601Z,43.27
2024-02-29T16:32:41.481Z,43.50
2024-02-29T16:35:48.327Z,44.09
2024-02-29T16:38:54.661Z,44.36
2024-02-29T16:42:02.829Z,44.89
2024-02-29T16:45:10.825Z,45.03
2024-02-29T16:48:16.521Z,45.29
2024-02-29T16:51:22.923Z,45.53
2024-02-29T16:54:28.552Z,45.78
2024-02-29T16:57:37.837Z,46.14
2024-02-29T17:00:43.372Z,46.52
2024-02-29T17:03:49.724Z,46.57
2024-02-29T17:06:55.563Z,46.64
2024-02-29T17:10:03.000Z,46.85
2024-02-29T17:13:11.426Z,47.25
2024-02-29T17:16:18.158Z,47.49
2024-02-29T17:19:23.878Z,48.00
2024-02-29T17:22:30.916Z,48.30
2024-02-29T17:25:36.617Z,48.47
2024-02-29T17:28:45.479Z,49.05
2024-02-29T17:31:51.010Z,49.03
2024-02-29T17:34:57.444Z,49.31
2024-02-29T17:38:03.956Z,49.63
2024-02-29T17:41:10.253Z,49.92
2024-02-29T17:44:20.837Z,49.86
2024-02-29T17:47:27.271Z,50.08
2024-02-29T17:50:32.954Z,50.42
2024-02-29T17:53:39.203Z,50.43
2024-02-29T17:56:47.761Z,50.69
2024-02-29T17:59:59.114Z,51.04
2024-02-29T18:03:04.650Z,51.29
2024-02-29T18:06:12.309Z,51.41
2024-02-29T18:09:18.169Z,51.69
2024-02-29T18:12:24.498Z,51.82
2024-02-29T18:15:32.613Z,52.12
2024-02-29T18:18:39.328Z,52.31
2024-02-29T18:21:47.087Z,52.26
2024-02-29T18:24:54.572Z,52.45
2024-02-29T18:28:00.190Z,52.74
2024-02-29T18:31:09.272Z,52.96
2024-02-29T18:34:14.969Z,53.13
2024-02-29T18:37:21.319Z,53.31
2024-02-29T18:40:27.179Z,53.51
2024-02-29T18:43:33.581Z,53.53
2024-02-29T18:46:43.801Z,53.83
2024-02-29T18:49:50.319Z,54.07
2024-02-29T18:52:56.037Z,54.27
2024-02-29T18:56:02.298Z,54.50
2024-02-29T18:59:07.949Z,54.69
2024-02-29T19:02:17.009Z,55.04
2024-02-29T19:05:22.844Z,55.22
2024-02-29T19:08:29.374Z,55.56
2024-02-29T19:11:34.932Z,55.53
2024-02-29T19:14:41.345Z,55.90
2024-02-29T19:17:49.550Z,56.07
2024-02-29T19:20:55.851Z,56.11
2024-02-29T19:24:01.364Z,56.36
2024-02-29T19:27:10.081Z,56.46
2024-02-29T19:30:18.916Z,56.44
2024-02-29T19:33:28.396Z,56.70
2024-02-29T19:36:34.278Z,56.65
2024-02-29T19:39:44.353Z,56.80
2024-02-29T19:42:50.126Z,57.01
2024-02-29T19:45:56.484Z,57.06
2024-02-29T19:49:04.641Z,57.06
2024-02-29T19:52:11.084Z,57.43
2024-02-29T19:55:16.597Z,57.59
2024-02-29T19:58:22.917Z,57.59
2024-02-29T20:01:28.611Z,57.62
2024-02-29T20:04:37.786Z,57.98
2024-02-29T20:07:44.054Z,58.42
2024-02-29T20:10:50.575Z,58.46
2024-02-29T20:13:56.227Z,58.67
2024-02-29T20:17:04.866Z,59.05
2024-02-29T20:20:15.370Z,59.28
2024-02-29T20:23:22.457Z,59.46
2024-02-29T20:26:28.723Z,59.38
2024-02-29T20:29:35.010Z,59.35
2024-02-29T20:32:41.740Z,59.53
2024-02-29T20:35:50.572Z,59.73
2024-02-29T20:38:56.081Z,59.89
2024-02-29T20:42:02.431Z,59.84
2024-02-29T20:45:09.235Z,60.06
2024-02-29T20:48:18.131Z,60.02
2024-02-29T20:51:26.429Z,60.03
2024-02-29T20:54:32.890Z,60.33
2024-02-29T20:57:39.965Z,60.22
2024-02-29T21:00:46.531Z,60.29
2024-02-29T21:03:52.780Z,60.59
2024-02-29T21:07:01.913Z,60.52
2024-02-29T21:10:08.753Z,60.67
2024-02-29T21:13:15.191Z,60.64
2024-02-29T21:16:20.863Z,60.76
2024-02-29T21:19:27.467Z,60.68
2024-02-29T21:22:36.442Z,60.98
2024-02-29T21:25:42.714Z,60.95
2024-02-29T21:28:50.705Z,61.03
2024-02-29T21:31:57.025Z,61.02
2024-02-29T21:35:02.599Z,61.10
2024-02-29T21:38:11.557Z,61.28
2024-02-29T21:41:17.466Z,61.38
2024-02-29T21:44:26.086Z,61.61
2024-02-29T21:47:31.677Z,61.53
2024-02-29T21:50:38.245Z,61.54
2024-02-29T21:53:46.488Z,61.52
2024-02-29T21:56:54.348Z,61.54
2024-02-29T21:59:59.829Z,61.39
2024-02-29T22:03:06.668Z,61.54
2024-02-29T22:06:15.103Z,61.59
2024-02-29T22:09:25.141Z,62.00
2024-02-29T22:12:30.733Z,61.97
2024-02-29T22:15:37.059Z,62.19
2024-02-29T22:18:42.612Z,62.22
2024-02-29T22:21:48.997Z,62.44
2024-02-29T22:24:57.377Z,62.60
2024-02-29T22:28:03.668Z,62.52
2024-02-29T22:31:09.187Z,62.68
2024-02-29T22:34:15.564Z,62.64
2024-02-29T22:37:21.567Z,62.74
2024-02-29T22:40:30.684Z,62.90
2024-02-29T22:43:36.477Z,62.81
2024-02-29T22:46:42.711Z,63.11
2024-02-29T22:49:48.168Z,63.25
2024-02-29T22:52:57.543Z,63.26
2024-02-29T22:56:05.657Z,63.10
2024-02-29T22:59:11.988Z,63.35
2024-02-29T23:02:17.525Z,63.15
2024-02-29T23:05:23.755Z,63.15
2024-02-29T23:08:30.996Z,62.92
2024-02-29T23:11:42.012Z,63.30
2024-02-29T23:14:51.076Z,63.01
2024-02-29T23:17:57.349Z,63.10
2024-02-29T23:21:03.064Z,63.03
2024-02-29T23:24:11.204Z,63.11
2024-02-29T23:27:19.294Z,63.11
2024-02-29T23:30:26.068Z,62.97
2024-02-29T23:33:32.149Z,63.06
2024-02-29T23:36:38.481Z,62.78
2024-02-29T23:39:44.033Z,62.82
2024-02-29T23:42:53.028Z,62.89
2024-02-29T23:45:59.087Z,62.74
2024-02-29T23:49:05.511Z,62.95
2024-02-29T23:52:11.235Z,62.93
2024-02-29T23:55:17.762Z,63.03
2024-02-29T23:58:25.952Z,63.17
